PWSweather.com
Personal Weather Stations
Station Observations
WODONGA
Wodonga, WodongaAU 3690

WodongaWodongaAU 3690

Lat: -36.121, Lon: 146.87

Elevation: 541

Station Type: Weather Station

http://www.wodongaweather.net

High Low Average
Temperature 58.3°F14.6°F 47.5°F8.6°F 52.5°F11.4°F
Dew Point 53.2°F11.8°F 43.6°F6.4°F 48.0°F8.9°F
Winds 6.4 mph E10.3 mph E Calm Calm 2.0 mph 3.2 mph
Wind Gusts 9.2 mph14.8 mph -- 3.3 mph5.3 mph
Humidity 99% 73% 85%
Pressure 30.25 in1024.40 in 30.04 in1017.30 in -
Precipitation 3.13 in79.50 in - -
Hour Temp Dew Point Humidity Winds Wind Gusts Pressure Precip Precip Rate Daily Precip Total
12:00 AM 49.6°F9.8°C 44.7°F7.1°C 83% 1.9 mph SSE3.1 kmh SSE 3.1 mph5.0 kmh 30.23 in1023.7 mb 0.00 in0.0 mm 0.00 in0.0 mm 0.00 in0.0 mm
12:05 AM 49.8°F9.9°C 44.9°F7.2°C 83% 2.2 mph SE3.5 kmh SE 3.1 mph5.0 kmh 30.23 in1023.7 mb 0.00 in0.0 mm 0.00 in0.0 mm 0.00 in0.0 mm
12:10 AM 49.8°F9.9°C 44.9°F7.2°C 83% 1.6 mph SSE2.6 kmh SSE 2.2 mph3.5 kmh 30.23 in1023.7 mb 0.00 in0.0 mm 0.00 in0.0 mm 0.00 in0.0 mm
12:15 AM 49.8°F9.9°C 44.9°F7.2°C 83% 1.5 mph SSE2.4 kmh SSE 2.2 mph3.5 kmh 30.22 in1023.4 mb 0.00 in0.0 mm 0.00 in0.0 mm 0.00 in0.0 mm
12:20 AM 50.0°F10.0°C 44.7°F7.1°C 82% 1.6 mph SSE2.6 kmh SSE 2.2 mph3.5 kmh 30.22 in1023.4 mb 0.00 in0.0 mm 0.00 in0.0 mm 0.00 in0.0 mm
12:25 AM 49.8°F9.9°C 44.9°F7.2°C 83% 0.7 mph S1.1 kmh S 2.2 mph3.5 kmh 30.23 in1023.7 mb 0.00 in0.0 mm 0.00 in0.0 mm 0.00 in0.0 mm
12:30 AM 49.8°F9.9°C 44.9°F7.2°C 83% 0.2 mph WNW0.3 kmh WNW 1.6 mph2.6 kmh 30.22 in1023.4 mb 0.00 in0.0 mm 0.00 in0.0 mm 0.00 in0.0 mm
12:35 AM 50.0°F10.0°C 44.7°F7.1°C 82% 1.4 mph E2.3 kmh E 3.8 mph6.1 kmh 30.22 in1023.4 mb 0.00 in0.0 mm 0.00 in0.0 mm 0.00 in0.0 mm
12:40 AM 50.0°F10.0°C 44.7°F7.1°C 82% 3.2 mph E5.1 kmh E 6.0 mph9.7 kmh 30.23 in1023.7 mb 0.00 in0.0 mm 0.00 in0.0 mm 0.00 in0.0 mm
12:45 AM 50.0°F10.0°C 44.7°F7.1°C 82% 3.0 mph E4.8 kmh E 6.0 mph9.7 kmh 30.22 in1023.4 mb 0.00 in0.0 mm 0.00 in0.0 mm 0.00 in0.0 mm
12:50 AM 50.0°F10.0°C 44.4°F6.9°C 81% 2.2 mph ESE3.5 kmh ESE 4.5 mph7.2 kmh 30.22 in1023.4 mb 0.00 in0.0 mm 0.00 in0.0 mm 0.00 in0.0 mm
12:55 AM 50.2°F10.1°C 44.6°F7.0°C 81% 3.0 mph E4.8 kmh E 4.5 mph7.2 kmh 30.23 in1023.7 mb 0.00 in0.0 mm 0.00 in0.0 mm 0.00 in0.0 mm
01:00 AM 50.2°F10.1°C 44.6°F7.0°C 81% 3.5 mph ESE5.6 kmh ESE 4.5 mph7.2 kmh 30.23 in1023.7 mb 0.00 in0.0 mm 0.00 in0.0 mm 0.00 in0.0 mm
01:05 AM 50.2°F10.1°C 44.6°F7.0°C 81% 3.7 mph ESE6.0 kmh ESE 5.4 mph8.7 kmh 30.22 in1023.4 mb 0.00 in0.0 mm 0.00 in0.0 mm 0.00 in0.0 mm
01:10 AM 50.0°F10.0°C 44.4°F6.9°C 81% 3.7 mph E6.0 kmh E 5.4 mph8.7 kmh 30.22 in1023.4 mb 0.00 in0.0 mm 0.00 in0.0 mm 0.00 in0.0 mm
01:15 AM 50.0°F10.0°C 44.4°F6.9°C 81% 3.2 mph E5.1 kmh E 5.4 mph8.7 kmh 30.22 in1023.4 mb 0.00 in0.0 mm 0.00 in0.0 mm 0.00 in0.0 mm
01:20 AM 50.0°F10.0°C 44.4°F6.9°C 81% 2.9 mph ESE4.7 kmh ESE 5.4 mph8.7 kmh 30.22 in1023.4 mb 0.00 in0.0 mm 0.00 in0.0 mm 0.00 in0.0 mm
01:25 AM 50.0°F10.0°C 44.4°F6.9°C 81% 3.3 mph SE5.3 kmh SE 4.5 mph7.2 kmh 30.23 in1023.7 mb 0.00 in0.0 mm 0.00 in0.0 mm 0.00 in0.0 mm
01:30 AM 49.8°F9.9°C 44.2°F6.8°C 81% 3.4 mph SE5.5 kmh SE 4.5 mph7.2 kmh 30.23 in1023.7 mb 0.00 in0.0 mm 0.00 in0.0 mm 0.00 in0.0 mm
01:35 AM 49.8°F9.9°C 44.2°F6.8°C 81% 2.3 mph SE3.7 kmh SE 4.5 mph7.2 kmh 30.22 in1023.4 mb 0.00 in0.0 mm 0.00 in0.0 mm 0.00 in0.0 mm
01:40 AM 49.8°F9.9°C 44.2°F6.8°C 81% 1.6 mph SSE2.6 kmh SSE 2.2 mph3.5 kmh 30.22 in1023.4 mb 0.00 in0.0 mm 0.00 in0.0 mm 0.00 in0.0 mm
01:45 AM 49.8°F9.9°C 44.2°F6.8°C 81% 2.1 mph SE3.4 kmh SE 3.1 mph5.0 kmh 30.22 in1023.4 mb 0.00 in0.0 mm 0.00 in0.0 mm 0.00 in0.0 mm
01:50 AM 49.8°F9.9°C 44.2°F6.8°C 81% 2.5 mph SE4.0 kmh SE 3.1 mph5.0 kmh 30.22 in1023.4 mb 0.00 in0.0 mm 0.00 in0.0 mm 0.00 in0.0 mm
01:55 AM 49.8°F9.9°C 44.2°F6.8°C 81% 2.2 mph SSE3.5 kmh SSE 3.1 mph5.0 kmh 30.22 in1023.4 mb 0.00 in0.0 mm 0.00 in0.0 mm 0.00 in0.0 mm
02:00 AM 49.8°F9.9°C 44.2°F6.8°C 81% 2.3 mph S3.7 kmh S 3.1 mph5.0 kmh 30.22 in1023.4 mb 0.00 in0.0 mm 0.00 in0.0 mm 0.00 in0.0 mm
02:05 AM 49.6°F9.8°C 44.1°F6.7°C 81% 2.5 mph SSE4.0 kmh SSE 3.1 mph5.0 kmh 30.22 in1023.4 mb 0.00 in0.0 mm 0.00 in0.0 mm 0.00 in0.0 mm
02:10 AM 49.6°F9.8°C 44.4°F6.9°C 82% 2.1 mph SSE3.4 kmh SSE 3.1 mph5.0 kmh 30.22 in1023.4 mb 0.00 in0.0 mm 0.00 in0.0 mm 0.00 in0.0 mm
02:15 AM 49.6°F9.8°C 44.4°F6.9°C 82% 1.6 mph S2.6 kmh S 2.2 mph3.5 kmh 30.22 in1023.4 mb 0.00 in0.0 mm 0.00 in0.0 mm 0.00 in0.0 mm
02:20 AM 49.6°F9.8°C 44.4°F6.9°C 82% 1.5 mph S2.4 kmh S 2.2 mph3.5 kmh 30.22 in1023.4 mb 0.00 in0.0 mm 0.00 in0.0 mm 0.00 in0.0 mm
02:25 AM 49.5°F9.7°C 44.2°F6.8°C 82% 0.9 mph S1.4 kmh S 2.2 mph3.5 kmh 30.22 in1023.4 mb 0.00 in0.0 mm 0.00 in0.0 mm 0.00 in0.0 mm
02:30 AM 49.5°F9.7°C 44.2°F6.8°C 82% 0.3 mph SW0.5 kmh SW 0.7 mph1.1 kmh 30.22 in1023.4 mb 0.00 in0.0 mm 0.00 in0.0 mm 0.00 in0.0 mm
02:35 AM 49.5°F9.7°C 44.2°F6.8°C 82% 0.2 mph WSW0.3 kmh WSW 0.7 mph1.1 kmh 30.22 in1023.4 mb 0.00 in0.0 mm 0.00 in0.0 mm 0.00 in0.0 mm
02:40 AM 49.5°F9.7°C 44.2°F6.8°C 82% 0.8 mph SSE1.3 kmh SSE 2.2 mph3.5 kmh 30.22 in1023.4 mb 0.00 in0.0 mm 0.00 in0.0 mm 0.00 in0.0 mm
02:45 AM 49.5°F9.7°C 44.2°F6.8°C 82% 1.9 mph SE3.1 kmh SE 3.1 mph5.0 kmh 30.22 in1023.4 mb 0.00 in0.0 mm 0.00 in0.0 mm 0.00 in0.0 mm
02:50 AM 49.5°F9.7°C 44.2°F6.8°C 82% 1.6 mph SSE2.6 kmh SSE 3.1 mph5.0 kmh 30.22 in1023.4 mb 0.00 in0.0 mm 0.00 in0.0 mm 0.00 in0.0 mm
02:55 AM 49.3°F9.6°C 44.0°F6.7°C 82% 1.1 mph SW1.8 kmh SW 1.6 mph2.6 kmh 30.22 in1023.4 mb 0.00 in0.0 mm 0.00 in0.0 mm 0.00 in0.0 mm
03:00 AM 49.3°F9.6°C 44.0°F6.7°C 82% 1.1 mph W1.8 kmh W 1.6 mph2.6 kmh 30.22 in1023.4 mb 0.00 in0.0 mm 0.00 in0.0 mm 0.00 in0.0 mm
03:05 AM 49.3°F9.6°C 44.0°F6.7°C 82% 0.9 mph WSW1.4 kmh WSW 1.6 mph2.6 kmh 30.22 in1023.4 mb 0.00 in0.0 mm 0.00 in0.0 mm 0.00 in0.0 mm
03:10 AM 49.3°F9.6°C 44.3°F6.8°C 83% 1.4 mph S2.3 kmh S 3.1 mph5.0 kmh 30.21 in1023.0 mb 0.00 in0.0 mm 0.00 in0.0 mm 0.00 in0.0 mm
03:15 AM 49.1°F9.5°C 44.2°F6.8°C 83% 1.6 mph SE2.6 kmh SE 3.1 mph5.0 kmh 30.22 in1023.4 mb 0.00 in0.0 mm 0.00 in0.0 mm 0.00 in0.0 mm
03:20 AM 49.1°F9.5°C 44.2°F6.8°C 83% 1.1 mph S1.8 kmh S 2.2 mph3.5 kmh 30.22 in1023.4 mb 0.00 in0.0 mm 0.00 in0.0 mm 0.00 in0.0 mm
03:25 AM 48.9°F9.4°C 44.0°F6.7°C 83% 1.0 mph W1.6 kmh W 2.2 mph3.5 kmh 30.22 in1023.4 mb 0.00 in0.0 mm 0.00 in0.0 mm 0.00 in0.0 mm
03:30 AM 48.9°F9.4°C 44.0°F6.7°C 83% 0.5 mph W0.8 kmh W 1.6 mph2.6 kmh 30.21 in1023.0 mb 0.00 in0.0 mm 0.00 in0.0 mm 0.00 in0.0 mm
03:35 AM 48.9°F9.4°C 44.0°F6.7°C 83% 0.4 mph S0.6 kmh S 1.6 mph2.6 kmh 30.21 in1023.0 mb 0.00 in0.0 mm 0.00 in0.0 mm 0.00 in0.0 mm
03:40 AM 48.7°F9.3°C 43.8°F6.6°C 83% 1.0 mph S1.6 kmh S 1.6 mph2.6 kmh 30.20 in1022.7 mb 0.00 in0.0 mm 0.00 in0.0 mm 0.00 in0.0 mm
03:45 AM 48.6°F9.2°C 43.6°F6.4°C 83% 0.7 mph S1.1 kmh S 1.6 mph2.6 kmh 30.20 in1022.7 mb 0.00 in0.0 mm 0.00 in0.0 mm 0.00 in0.0 mm
03:50 AM 48.4°F9.1°C 43.8°F6.6°C 84% 0.2 mph ESE0.3 kmh ESE 0.7 mph1.1 kmh 30.20 in1022.7 mb 0.00 in0.0 mm 0.00 in0.0 mm 0.00 in0.0 mm
03:55 AM 48.4°F9.1°C 43.8°F6.6°C 84% 0.2 mph E0.3 kmh E 0.7 mph1.1 kmh 30.20 in1022.7 mb 0.00 in0.0 mm 0.00 in0.0 mm 0.00 in0.0 mm
04:00 AM 48.2°F9.0°C 43.9°F6.6°C 85% 0.3 mph NW0.5 kmh NW 1.6 mph2.6 kmh 30.20 in1022.7 mb 0.00 in0.0 mm 0.00 in0.0 mm 0.00 in0.0 mm
04:05 AM 48.2°F9.0°C 43.9°F6.6°C 85% 0.4 mph NW0.6 kmh NW 1.6 mph2.6 kmh 30.20 in1022.7 mb 0.00 in0.0 mm 0.00 in0.0 mm 0.00 in0.0 mm
04:10 AM 48.2°F9.0°C 43.9°F6.6°C 85% 0.3 mph SW0.5 kmh SW 0.7 mph1.1 kmh 30.20 in1022.7 mb 0.00 in0.0 mm 0.00 in0.0 mm 0.00 in0.0 mm
04:15 AM 48.0°F8.9°C 43.7°F6.5°C 85% 0.2 mph SSW0.3 kmh SSW 0.7 mph1.1 kmh 30.20 in1022.7 mb 0.00 in0.0 mm 0.00 in0.0 mm 0.00 in0.0 mm
04:20 AM 47.8°F8.8°C 43.6°F6.4°C 85% 0.7 mph W1.1 kmh W 2.2 mph3.5 kmh 30.20 in1022.7 mb 0.00 in0.0 mm 0.00 in0.0 mm 0.00 in0.0 mm
04:25 AM 47.8°F8.8°C 43.9°F6.6°C 86% 1.0 mph W1.6 kmh W 2.2 mph3.5 kmh 30.20 in1022.7 mb 0.00 in0.0 mm 0.00 in0.0 mm 0.00 in0.0 mm
04:30 AM 47.8°F8.8°C 43.9°F6.6°C 86% 0.5 mph NW0.8 kmh NW 1.6 mph2.6 kmh 30.21 in1023.0 mb 0.00 in0.0 mm 0.00 in0.0 mm 0.00 in0.0 mm
04:35 AM 47.8°F8.8°C 43.9°F6.6°C 86% 0.3 mph WNW0.5 kmh WNW 1.6 mph2.6 kmh 30.20 in1022.7 mb 0.00 in0.0 mm 0.00 in0.0 mm 0.00 in0.0 mm
04:40 AM 47.8°F8.8°C 43.9°F6.6°C 86% 0.6 mph W1.0 kmh W 1.6 mph2.6 kmh 30.21 in1023.0 mb 0.00 in0.0 mm 0.00 in0.0 mm 0.00 in0.0 mm
04:45 AM 48.0°F8.9°C 44.0°F6.7°C 86% 0.9 mph W1.4 kmh W 1.6 mph2.6 kmh 30.21 in1023.0 mb 0.00 in0.0 mm 0.00 in0.0 mm 0.00 in0.0 mm
04:50 AM 48.0°F8.9°C 44.0°F6.7°C 86% 0.5 mph W0.8 kmh W 1.6 mph2.6 kmh 30.21 in1023.0 mb 0.00 in0.0 mm 0.00 in0.0 mm 0.00 in0.0 mm
04:55 AM 48.0°F8.9°C 44.0°F6.7°C 86% 0.8 mph WSW1.3 kmh WSW 2.2 mph3.5 kmh 30.22 in1023.4 mb 0.00 in0.0 mm 0.00 in0.0 mm 0.00 in0.0 mm
05:00 AM 48.0°F8.9°C 44.0°F6.7°C 86% 1.6 mph W2.6 kmh W 2.2 mph3.5 kmh 30.22 in1023.4 mb 0.00 in0.0 mm 0.00 in0.0 mm 0.00 in0.0 mm
05:05 AM 47.8°F8.8°C 43.9°F6.6°C 86% 1.6 mph WNW2.6 kmh WNW 2.2 mph3.5 kmh 30.22 in1023.4 mb 0.00 in0.0 mm 0.00 in0.0 mm 0.00 in0.0 mm
05:10 AM 48.0°F8.9°C 44.0°F6.7°C 86% 1.1 mph WNW1.8 kmh WNW 2.2 mph3.5 kmh 30.22 in1023.4 mb 0.00 in0.0 mm 0.00 in0.0 mm 0.00 in0.0 mm
05:15 AM 48.0°F8.9°C 44.0°F6.7°C 86% 1.1 mph WSW1.8 kmh WSW 2.2 mph3.5 kmh 30.22 in1023.4 mb 0.00 in0.0 mm 0.00 in0.0 mm 0.00 in0.0 mm
05:20 AM 48.0°F8.9°C 44.0°F6.7°C 86% 1.4 mph SW2.3 kmh SW 2.2 mph3.5 kmh 30.22 in1023.4 mb 0.00 in0.0 mm 0.00 in0.0 mm 0.00 in0.0 mm
05:25 AM 48.0°F8.9°C 44.0°F6.7°C 86% 1.5 mph SE2.4 kmh SE 2.2 mph3.5 kmh 30.21 in1023.0 mb 0.00 in0.0 mm 0.00 in0.0 mm 0.00 in0.0 mm
05:30 AM 48.0°F8.9°C 44.0°F6.7°C 86% 2.0 mph ESE3.2 kmh ESE 3.1 mph5.0 kmh 30.21 in1023.0 mb 0.00 in0.0 mm 0.00 in0.0 mm 0.00 in0.0 mm
05:35 AM 48.0°F8.9°C 44.0°F6.7°C 86% 2.2 mph SE3.5 kmh SE 3.1 mph5.0 kmh 30.20 in1022.7 mb 0.00 in0.0 mm 0.00 in0.0 mm 0.00 in0.0 mm
05:40 AM 47.8°F8.8°C 43.9°F6.6°C 86% 1.8 mph S2.9 kmh S 2.2 mph3.5 kmh 30.20 in1022.7 mb 0.00 in0.0 mm 0.00 in0.0 mm 0.00 in0.0 mm
05:45 AM 47.7°F8.7°C 43.7°F6.5°C 86% 0.9 mph SW1.4 kmh SW 2.2 mph3.5 kmh 30.21 in1023.0 mb 0.00 in0.0 mm 0.00 in0.0 mm 0.00 in0.0 mm
05:50 AM 47.7°F8.7°C 44.0°F6.7°C 87% 0.5 mph WSW0.8 kmh WSW 1.6 mph2.6 kmh 30.21 in1023.0 mb 0.00 in0.0 mm 0.00 in0.0 mm 0.00 in0.0 mm
05:55 AM 47.7°F8.7°C 44.0°F6.7°C 87% 0.7 mph WSW1.1 kmh WSW 1.6 mph2.6 kmh 30.21 in1023.0 mb 0.00 in0.0 mm 0.00 in0.0 mm 0.00 in0.0 mm
06:00 AM 47.8°F8.8°C 44.2°F6.8°C 87% 0.8 mph WSW1.3 kmh WSW 1.6 mph2.6 kmh 30.20 in1022.7 mb 0.00 in0.0 mm 0.00 in0.0 mm 0.00 in0.0 mm
06:05 AM 47.7°F8.7°C 44.0°F6.7°C 87% 0.9 mph W1.4 kmh W 2.2 mph3.5 kmh 30.22 in1023.4 mb 0.00 in0.0 mm 0.00 in0.0 mm 0.00 in0.0 mm
06:10 AM 47.7°F8.7°C 44.0°F6.7°C 87% 1.4 mph NW2.3 kmh NW 2.2 mph3.5 kmh 30.22 in1023.4 mb 0.00 in0.0 mm 0.00 in0.0 mm 0.00 in0.0 mm
06:15 AM 47.5°F8.6°C 43.8°F6.6°C 87% 2.0 mph NW3.2 kmh NW 3.1 mph5.0 kmh 30.22 in1023.4 mb 0.00 in0.0 mm 0.00 in0.0 mm 0.00 in0.0 mm
06:20 AM 47.7°F8.7°C 44.0°F6.7°C 87% 2.4 mph NW3.9 kmh NW 3.1 mph5.0 kmh 30.23 in1023.7 mb 0.00 in0.0 mm 0.00 in0.0 mm 0.00 in0.0 mm
06:25 AM 47.7°F8.7°C 44.0°F6.7°C 87% 2.2 mph WNW3.5 kmh WNW 3.1 mph5.0 kmh 30.23 in1023.7 mb 0.00 in0.0 mm 0.00 in0.0 mm 0.00 in0.0 mm
06:30 AM 47.7°F8.7°C 44.0°F6.7°C 87% 1.4 mph W2.3 kmh W 2.2 mph3.5 kmh 30.22 in1023.4 mb 0.00 in0.0 mm 0.00 in0.0 mm 0.00 in0.0 mm
06:35 AM 47.8°F8.8°C 44.2°F6.8°C 87% 1.0 mph SW1.6 kmh SW 1.6 mph2.6 kmh 30.22 in1023.4 mb 0.00 in0.0 mm 0.00 in0.0 mm 0.00 in0.0 mm
06:40 AM 47.8°F8.8°C 44.2°F6.8°C 87% 0.8 mph SSW1.3 kmh SSW 1.6 mph2.6 kmh 30.22 in1023.4 mb 0.00 in0.0 mm 0.00 in0.0 mm 0.00 in0.0 mm
06:45 AM 47.8°F8.8°C 44.2°F6.8°C 87% 0.2 mph SW0.3 kmh SW 1.6 mph2.6 kmh 30.22 in1023.4 mb 0.00 in0.0 mm 0.00 in0.0 mm 0.00 in0.0 mm
06:50 AM 47.8°F8.8°C 44.2°F6.8°C 87% 0.1 mph W0.2 kmh W 0.7 mph1.1 kmh 30.23 in1023.7 mb 0.00 in0.0 mm 0.00 in0.0 mm 0.00 in0.0 mm
06:55 AM 47.7°F8.7°C 44.0°F6.7°C 87% 0.8 mph WSW1.3 kmh WSW 1.6 mph2.6 kmh 30.23 in1023.7 mb 0.00 in0.0 mm 0.00 in0.0 mm 0.00 in0.0 mm
07:00 AM 47.7°F8.7°C 44.0°F6.7°C 87% 1.1 mph SW1.8 kmh SW 1.6 mph2.6 kmh 30.23 in1023.7 mb 0.00 in0.0 mm 0.00 in0.0 mm 0.00 in0.0 mm
07:05 AM 47.8°F8.8°C 44.5°F6.9°C 88% 0.4 mph SW0.6 kmh SW 1.6 mph2.6 kmh 30.23 in1023.7 mb 0.00 in0.0 mm 0.00 in0.0 mm 0.00 in0.0 mm
07:10 AM 47.8°F8.8°C 44.5°F6.9°C 88% 0.1 mph W0.2 kmh W 0.7 mph1.1 kmh 30.23 in1023.7 mb 0.00 in0.0 mm 0.00 in0.0 mm 0.00 in0.0 mm
07:15 AM 48.0°F8.9°C 44.6°F7.0°C 88% 0.1 mph S0.2 kmh S 0.7 mph1.1 kmh 30.23 in1023.7 mb 0.00 in0.0 mm 0.00 in0.0 mm 0.00 in0.0 mm
07:20 AM 48.0°F8.9°C 44.6°F7.0°C 88% 0.1 mph S0.2 kmh S 0.7 mph1.1 kmh 30.23 in1023.7 mb 0.00 in0.0 mm 0.00 in0.0 mm 0.00 in0.0 mm
07:25 AM 48.2°F9.0°C 44.8°F7.1°C 88% 0.1 mph W0.2 kmh W 1.6 mph2.6 kmh 30.23 in1023.7 mb 0.00 in0.0 mm 0.00 in0.0 mm 0.00 in0.0 mm
07:30 AM 48.4°F9.1°C 45.0°F7.2°C 88% 0.7 mph NW1.1 kmh NW 1.6 mph2.6 kmh 30.23 in1023.7 mb 0.00 in0.0 mm 0.00 in0.0 mm 0.00 in0.0 mm
07:35 AM 48.6°F9.2°C 44.9°F7.2°C 87% 0.6 mph NW1.0 kmh NW 1.6 mph2.6 kmh 30.23 in1023.7 mb 0.00 in0.0 mm 0.00 in0.0 mm 0.00 in0.0 mm
07:40 AM 48.6°F9.2°C 44.9°F7.2°C 87% Calm Calm -- 30.23 in1023.7 mb 0.00 in0.0 mm 0.00 in0.0 mm 0.00 in0.0 mm
07:45 AM 48.7°F9.3°C 44.7°F7.1°C 86% 0.4 mph WNW0.6 kmh WNW 1.6 mph2.6 kmh 30.23 in1023.7 mb 0.00 in0.0 mm 0.00 in0.0 mm 0.00 in0.0 mm
07:50 AM 48.9°F9.4°C 44.9°F7.2°C 86% 1.0 mph NW1.6 kmh NW 1.6 mph2.6 kmh 30.22 in1023.4 mb 0.00 in0.0 mm 0.00 in0.0 mm 0.00 in0.0 mm
07:55 AM 49.1°F9.5°C 45.1°F7.3°C 86% 1.0 mph NW1.6 kmh NW 1.6 mph2.6 kmh 30.22 in1023.4 mb 0.00 in0.0 mm 0.00 in0.0 mm 0.00 in0.0 mm
08:00 AM 49.5°F9.7°C 45.1°F7.3°C 85% 0.7 mph WNW1.1 kmh WNW 1.6 mph2.6 kmh 30.22 in1023.4 mb 0.00 in0.0 mm 0.00 in0.0 mm 0.00 in0.0 mm
08:05 AM 49.6°F9.8°C 45.3°F7.4°C 85% 0.5 mph S0.8 kmh S 1.6 mph2.6 kmh 30.22 in1023.4 mb 0.00 in0.0 mm 0.00 in0.0 mm 0.00 in0.0 mm
08:10 AM 50.0°F10.0°C 45.7°F7.6°C 85% 1.1 mph S1.8 kmh S 2.2 mph3.5 kmh 30.22 in1023.4 mb 0.00 in0.0 mm 0.00 in0.0 mm 0.00 in0.0 mm
08:15 AM 50.2°F10.1°C 45.9°F7.7°C 85% 1.8 mph S2.9 kmh S 2.2 mph3.5 kmh 30.22 in1023.4 mb 0.00 in0.0 mm 0.00 in0.0 mm 0.00 in0.0 mm
08:20 AM 50.4°F10.2°C 46.0°F7.8°C 85% 1.5 mph S2.4 kmh S 2.2 mph3.5 kmh 30.22 in1023.4 mb 0.00 in0.0 mm 0.00 in0.0 mm 0.00 in0.0 mm
08:25 AM 50.7°F10.4°C 46.1°F7.8°C 84% 0.7 mph SW1.1 kmh SW 2.2 mph3.5 kmh 30.22 in1023.4 mb 0.00 in0.0 mm 0.00 in0.0 mm 0.00 in0.0 mm
08:30 AM 50.9°F10.5°C 46.2°F7.9°C 84% 0.9 mph W1.4 kmh W 2.2 mph3.5 kmh 30.23 in1023.7 mb 0.00 in0.0 mm 0.00 in0.0 mm 0.00 in0.0 mm
08:35 AM 51.1°F10.6°C 46.1°F7.8°C 83% 1.4 mph WSW2.3 kmh WSW 2.2 mph3.5 kmh 30.23 in1023.7 mb 0.00 in0.0 mm 0.00 in0.0 mm 0.00 in0.0 mm
08:40 AM 51.4°F10.8°C 46.5°F8.1°C 83% 1.2 mph SW1.9 kmh SW 1.6 mph2.6 kmh 30.23 in1023.7 mb 0.00 in0.0 mm 0.00 in0.0 mm 0.00 in0.0 mm
08:45 AM 51.8°F11.0°C 46.8°F8.2°C 83% 1.4 mph S2.3 kmh S 2.2 mph3.5 kmh 30.22 in1023.4 mb 0.00 in0.0 mm 0.00 in0.0 mm 0.00 in0.0 mm
08:50 AM 51.8°F11.0°C 46.5°F8.1°C 82% 1.8 mph S2.9 kmh S 2.2 mph3.5 kmh 30.22 in1023.4 mb 0.00 in0.0 mm 0.00 in0.0 mm 0.00 in0.0 mm
08:55 AM 51.8°F11.0°C 46.5°F8.1°C 82% 1.9 mph S3.1 kmh S 3.1 mph5.0 kmh 30.23 in1023.7 mb 0.00 in0.0 mm 0.00 in0.0 mm 0.00 in0.0 mm
09:00 AM 51.8°F11.0°C 46.5°F8.1°C 82% 1.9 mph SW3.1 kmh SW 3.1 mph5.0 kmh 30.24 in1024.0 mb 0.00 in0.0 mm 0.00 in0.0 mm 0.00 in0.0 mm
09:05 AM 52.2°F11.2°C 46.5°F8.1°C 81% 1.5 mph W2.4 kmh W 2.2 mph3.5 kmh 30.24 in1024.0 mb 0.00 in0.0 mm 0.00 in0.0 mm 0.00 in0.0 mm
09:10 AM 52.3°F11.3°C 46.7°F8.2°C 81% 1.1 mph W1.8 kmh W 2.2 mph3.5 kmh 30.24 in1024.0 mb 0.00 in0.0 mm 0.00 in0.0 mm 0.00 in0.0 mm
09:15 AM 52.5°F11.4°C 46.9°F8.3°C 81% 0.6 mph WSW1.0 kmh WSW 1.6 mph2.6 kmh 30.24 in1024.0 mb 0.00 in0.0 mm 0.00 in0.0 mm 0.00 in0.0 mm
09:20 AM 52.5°F11.4°C 46.9°F8.3°C 81% 0.6 mph ESE1.0 kmh ESE 2.2 mph3.5 kmh 30.24 in1024.0 mb 0.00 in0.0 mm 0.00 in0.0 mm 0.00 in0.0 mm
09:25 AM 52.5°F11.4°C 46.9°F8.3°C 81% 1.8 mph NE2.9 kmh NE 3.8 mph6.1 kmh 30.25 in1024.4 mb 0.00 in0.0 mm 0.00 in0.0 mm 0.00 in0.0 mm
09:30 AM 52.3°F11.3°C 46.7°F8.2°C 81% 2.5 mph NNE4.0 kmh NNE 3.8 mph6.1 kmh 30.24 in1024.0 mb 0.00 in0.0 mm 0.00 in0.0 mm 0.00 in0.0 mm
09:35 AM 52.0°F11.1°C 46.3°F7.9°C 81% 2.2 mph N3.5 kmh N 3.8 mph6.1 kmh 30.25 in1024.4 mb 0.00 in0.0 mm 0.00 in0.0 mm 0.00 in0.0 mm
09:40 AM 52.0°F11.1°C 46.3°F7.9°C 81% 1.6 mph NW2.6 kmh NW 3.1 mph5.0 kmh 30.24 in1024.0 mb 0.00 in0.0 mm 0.00 in0.0 mm 0.00 in0.0 mm
09:45 AM 52.0°F11.1°C 46.7°F8.2°C 82% 1.0 mph WNW1.6 kmh WNW 3.1 mph5.0 kmh 30.25 in1024.4 mb 0.00 in0.0 mm 0.00 in0.0 mm 0.00 in0.0 mm
09:50 AM 52.3°F11.3°C 46.7°F8.2°C 81% 0.9 mph E1.4 kmh E 1.6 mph2.6 kmh 30.24 in1024.0 mb 0.00 in0.0 mm 0.00 in0.0 mm 0.00 in0.0 mm
09:55 AM 52.5°F11.4°C 47.2°F8.4°C 82% 1.2 mph E1.9 kmh E 2.2 mph3.5 kmh 30.24 in1024.0 mb 0.00 in0.0 mm 0.00 in0.0 mm 0.00 in0.0 mm
10:00 AM 52.9°F11.6°C 47.5°F8.6°C 82% 1.9 mph E3.1 kmh E 3.1 mph5.0 kmh 30.23 in1023.7 mb 0.00 in0.0 mm 0.00 in0.0 mm 0.00 in0.0 mm
10:05 AM 53.2°F11.8°C 47.6°F8.7°C 81% 2.5 mph ESE4.0 kmh ESE 3.8 mph6.1 kmh 30.23 in1023.7 mb 0.00 in0.0 mm 0.00 in0.0 mm 0.00 in0.0 mm
10:10 AM 53.8°F12.1°C 47.8°F8.8°C 80% 2.8 mph ESE4.5 kmh ESE 5.4 mph8.7 kmh 30.22 in1023.4 mb 0.00 in0.0 mm 0.00 in0.0 mm 0.00 in0.0 mm
10:15 AM 54.0°F12.2°C 47.3°F8.5°C 78% 4.9 mph E7.9 kmh E 9.2 mph14.8 kmh 30.22 in1023.4 mb 0.00 in0.0 mm 0.00 in0.0 mm 0.00 in0.0 mm
10:20 AM 54.1°F12.3°C 47.1°F8.4°C 77% 6.2 mph E10.0 kmh E 9.2 mph14.8 kmh 30.22 in1023.4 mb 0.00 in0.0 mm 0.00 in0.0 mm 0.00 in0.0 mm
10:25 AM 54.7°F12.6°C 47.6°F8.7°C 77% 5.6 mph E9.0 kmh E 6.9 mph11.1 kmh 30.21 in1023.0 mb 0.00 in0.0 mm 0.00 in0.0 mm 0.00 in0.0 mm
10:30 AM 55.0°F12.8°C 47.6°F8.7°C 76% 5.3 mph E8.5 kmh E 6.9 mph11.1 kmh 30.21 in1023.0 mb 0.00 in0.0 mm 0.00 in0.0 mm 0.00 in0.0 mm
10:35 AM 55.4°F13.0°C 47.6°F8.7°C 75% 4.9 mph ESE7.9 kmh ESE 6.9 mph11.1 kmh 30.20 in1022.7 mb 0.00 in0.0 mm 0.00 in0.0 mm 0.00 in0.0 mm
10:40 AM 55.9°F13.3°C 47.8°F8.8°C 74% 5.4 mph E8.7 kmh E 7.6 mph12.2 kmh 30.21 in1023.0 mb 0.00 in0.0 mm 0.00 in0.0 mm 0.00 in0.0 mm
10:45 AM 56.1°F13.4°C 48.0°F8.9°C 74% 6.1 mph E9.8 kmh E 7.6 mph12.2 kmh 30.21 in1023.0 mb 0.00 in0.0 mm 0.00 in0.0 mm 0.00 in0.0 mm
10:50 AM 56.1°F13.4°C 47.6°F8.7°C 73% 5.6 mph E9.0 kmh E 7.6 mph12.2 kmh 30.21 in1023.0 mb 0.00 in0.0 mm 0.00 in0.0 mm 0.00 in0.0 mm
10:55 AM 56.1°F13.4°C 48.0°F8.9°C 74% 4.6 mph E7.4 kmh E 6.0 mph9.7 kmh 30.21 in1023.0 mb 0.00 in0.0 mm 0.00 in0.0 mm 0.00 in0.0 mm
11:00 AM 56.3°F13.5°C 48.1°F8.9°C 74% 3.9 mph E6.3 kmh E 5.4 mph8.7 kmh 30.20 in1022.7 mb 0.00 in0.0 mm 0.00 in0.0 mm 0.00 in0.0 mm
11:05 AM 56.5°F13.6°C 48.7°F9.3°C 75% 2.9 mph ESE4.7 kmh ESE 4.5 mph7.2 kmh 30.20 in1022.7 mb 0.00 in0.0 mm 0.00 in0.0 mm 0.00 in0.0 mm
11:10 AM 56.7°F13.7°C 48.5°F9.2°C 74% 3.1 mph SE5.0 kmh SE 4.5 mph7.2 kmh 30.20 in1022.7 mb 0.00 in0.0 mm 0.00 in0.0 mm 0.00 in0.0 mm
11:15 AM 56.8°F13.8°C 48.7°F9.3°C 74% 3.6 mph SE5.8 kmh SE 4.5 mph7.2 kmh 30.21 in1023.0 mb 0.00 in0.0 mm 0.00 in0.0 mm 0.00 in0.0 mm
11:20 AM 56.7°F13.7°C 48.5°F9.2°C 74% 3.7 mph ESE6.0 kmh ESE 4.5 mph7.2 kmh 30.21 in1023.0 mb 0.00 in0.0 mm 0.00 in0.0 mm 0.00 in0.0 mm
11:25 AM 56.7°F13.7°C 48.1°F8.9°C 73% 3.8 mph E6.1 kmh E 5.4 mph8.7 kmh 30.21 in1023.0 mb 0.00 in0.0 mm 0.00 in0.0 mm 0.00 in0.0 mm
11:30 AM 56.5°F13.6°C 47.9°F8.8°C 73% 3.2 mph ESE5.1 kmh ESE 5.4 mph8.7 kmh 30.20 in1022.7 mb 0.00 in0.0 mm 0.00 in0.0 mm 0.00 in0.0 mm
11:35 AM 56.3°F13.5°C 48.1°F8.9°C 74% 2.6 mph SE4.2 kmh SE 3.1 mph5.0 kmh 30.21 in1023.0 mb 0.00 in0.0 mm 0.00 in0.0 mm 0.00 in0.0 mm
11:40 AM 56.1°F13.4°C 48.0°F8.9°C 74% 3.2 mph E5.1 kmh E 4.5 mph7.2 kmh 30.20 in1022.7 mb 0.00 in0.0 mm 0.00 in0.0 mm 0.00 in0.0 mm
11:45 AM 55.9°F13.3°C 48.1°F8.9°C 75% 3.0 mph E4.8 kmh E 4.5 mph7.2 kmh 30.20 in1022.7 mb 0.00 in0.0 mm 0.00 in0.0 mm 0.00 in0.0 mm
11:50 AM 55.9°F13.3°C 48.5°F9.2°C 76% 2.6 mph E4.2 kmh E 3.8 mph6.1 kmh 30.21 in1023.0 mb 0.00 in0.0 mm 0.00 in0.0 mm 0.00 in0.0 mm
11:55 AM 55.8°F13.2°C 48.7°F9.3°C 77% 2.6 mph E4.2 kmh E 3.8 mph6.1 kmh 30.20 in1022.7 mb 0.00 in0.0 mm 0.00 in0.0 mm 0.00 in0.0 mm
12:00 PM 55.9°F13.3°C 48.8°F9.3°C 77% 2.2 mph ESE3.5 kmh ESE 3.1 mph5.0 kmh 30.20 in1022.7 mb 0.00 in0.0 mm 0.00 in0.0 mm 0.00 in0.0 mm
12:05 PM 55.9°F13.3°C 49.2°F9.6°C 78% 2.3 mph SE3.7 kmh SE 3.8 mph6.1 kmh 30.20 in1022.7 mb 0.00 in0.0 mm 0.00 in0.0 mm 0.00 in0.0 mm
12:10 PM 56.1°F13.4°C 49.4°F9.7°C 78% 2.4 mph SE3.9 kmh SE 3.8 mph6.1 kmh 30.20 in1022.7 mb 0.00 in0.0 mm 0.00 in0.0 mm 0.00 in0.0 mm
12:15 PM 56.3°F13.5°C 49.5°F9.7°C 78% 2.4 mph SSE3.9 kmh SSE 3.8 mph6.1 kmh 30.19 in1022.4 mb 0.00 in0.0 mm 0.00 in0.0 mm 0.00 in0.0 mm
12:20 PM 56.5°F13.6°C 50.1°F10.1°C 79% 2.3 mph S3.7 kmh S 3.8 mph6.1 kmh 30.19 in1022.4 mb 0.00 in0.0 mm 0.00 in0.0 mm 0.00 in0.0 mm
12:25 PM 56.7°F13.7°C 50.2°F10.1°C 79% 2.2 mph S3.5 kmh S 3.8 mph6.1 kmh 30.18 in1022.0 mb 0.00 in0.0 mm 0.00 in0.0 mm 0.00 in0.0 mm
12:30 PM 56.5°F13.6°C 50.1°F10.1°C 79% 2.2 mph S3.5 kmh S 3.1 mph5.0 kmh 30.19 in1022.4 mb 0.00 in0.0 mm 0.00 in0.0 mm 0.00 in0.0 mm
12:35 PM 56.5°F13.6°C 50.1°F10.1°C 79% 2.3 mph SSE3.7 kmh SSE 3.8 mph6.1 kmh 30.17 in1021.7 mb 0.00 in0.0 mm 0.00 in0.0 mm 0.00 in0.0 mm
12:40 PM 56.5°F13.6°C 50.1°F10.1°C 79% 2.7 mph SSE4.3 kmh SSE 3.8 mph6.1 kmh 30.16 in1021.3 mb 0.00 in0.0 mm 0.00 in0.0 mm 0.00 in0.0 mm
12:45 PM 56.5°F13.6°C 50.1°F10.1°C 79% 3.3 mph SE5.3 kmh SE 3.8 mph6.1 kmh 30.16 in1021.3 mb 0.00 in0.0 mm 0.00 in0.0 mm 0.00 in0.0 mm
12:50 PM 56.5°F13.6°C 50.1°F10.1°C 79% 3.5 mph SE5.6 kmh SE 3.8 mph6.1 kmh 30.15 in1021.0 mb 0.00 in0.0 mm 0.00 in0.0 mm 0.00 in0.0 mm
12:55 PM 56.7°F13.7°C 50.2°F10.1°C 79% 3.2 mph SSE5.1 kmh SSE 3.8 mph6.1 kmh 30.15 in1021.0 mb 0.00 in0.0 mm 0.00 in0.0 mm 0.00 in0.0 mm
01:00 PM 56.8°F13.8°C 50.1°F10.1°C 78% 3.4 mph SE5.5 kmh SE 5.4 mph8.7 kmh 30.14 in1020.7 mb 0.00 in0.0 mm 0.00 in0.0 mm 0.00 in0.0 mm
01:05 PM 56.8°F13.8°C 50.1°F10.1°C 78% 4.2 mph ESE6.8 kmh ESE 6.0 mph9.7 kmh 30.14 in1020.7 mb 0.00 in0.0 mm 0.00 in0.0 mm 0.00 in0.0 mm
01:10 PM 57.0°F13.9°C 50.2°F10.1°C 78% 4.9 mph E7.9 kmh E 6.9 mph11.1 kmh 30.14 in1020.7 mb 0.00 in0.0 mm 0.00 in0.0 mm 0.00 in0.0 mm
01:15 PM 57.2°F14.0°C 50.1°F10.1°C 77% 4.5 mph E7.2 kmh E 6.9 mph11.1 kmh 30.14 in1020.7 mb 0.00 in0.0 mm 0.00 in0.0 mm 0.00 in0.0 mm
01:20 PM 57.4°F14.1°C 50.6°F10.3°C 78% 3.9 mph ESE6.3 kmh ESE 5.4 mph8.7 kmh 30.14 in1020.7 mb 0.00 in0.0 mm 0.00 in0.0 mm 0.00 in0.0 mm
01:25 PM 57.2°F14.0°C 50.4°F10.2°C 78% 3.6 mph SE5.8 kmh SE 4.5 mph7.2 kmh 30.14 in1020.7 mb 0.00 in0.0 mm 0.00 in0.0 mm 0.00 in0.0 mm
01:30 PM 57.4°F14.1°C 50.2°F10.1°C 77% 3.6 mph ESE5.8 kmh ESE 5.4 mph8.7 kmh 30.14 in1020.7 mb 0.00 in0.0 mm 0.00 in0.0 mm 0.00 in0.0 mm
01:35 PM 57.6°F14.2°C 50.8°F10.4°C 78% 3.6 mph ESE5.8 kmh ESE 5.4 mph8.7 kmh 30.14 in1020.7 mb 0.00 in0.0 mm 0.00 in0.0 mm 0.00 in0.0 mm
01:40 PM 57.6°F14.2°C 50.8°F10.4°C 78% 2.9 mph SE4.7 kmh SE 4.5 mph7.2 kmh 30.14 in1020.7 mb 0.00 in0.0 mm 0.00 in0.0 mm 0.00 in0.0 mm
01:45 PM 57.6°F14.2°C 50.8°F10.4°C 78% 2.4 mph SE3.9 kmh SE 3.8 mph6.1 kmh 30.14 in1020.7 mb 0.00 in0.0 mm 0.00 in0.0 mm 0.00 in0.0 mm
01:50 PM 57.6°F14.2°C 50.8°F10.4°C 78% 2.3 mph SE3.7 kmh SE 3.8 mph6.1 kmh 30.14 in1020.7 mb 0.00 in0.0 mm 0.00 in0.0 mm 0.00 in0.0 mm
01:55 PM 57.7°F14.3°C 50.6°F10.3°C 77% 2.1 mph SE3.4 kmh SE 3.1 mph5.0 kmh 30.14 in1020.7 mb 0.00 in0.0 mm 0.00 in0.0 mm 0.00 in0.0 mm
02:00 PM 57.7°F14.3°C 50.9°F10.5°C 78% 2.0 mph SSE3.2 kmh SSE 2.2 mph3.5 kmh 30.14 in1020.7 mb 0.00 in0.0 mm 0.00 in0.0 mm 0.00 in0.0 mm
02:05 PM 57.7°F14.3°C 50.9°F10.5°C 78% 1.9 mph S3.1 kmh S 2.2 mph3.5 kmh 30.14 in1020.7 mb 0.00 in0.0 mm 0.00 in0.0 mm 0.00 in0.0 mm
02:10 PM 57.7°F14.3°C 51.3°F10.7°C 79% 1.9 mph S3.1 kmh S 3.1 mph5.0 kmh 30.13 in1020.3 mb 0.00 in0.0 mm 0.00 in0.0 mm 0.00 in0.0 mm
02:15 PM 57.7°F14.3°C 51.3°F10.7°C 79% 2.4 mph SSE3.9 kmh SSE 3.1 mph5.0 kmh 30.13 in1020.3 mb 0.00 in0.0 mm 0.00 in0.0 mm 0.00 in0.0 mm
02:20 PM 57.9°F14.4°C 51.8°F11.0°C 80% 2.4 mph S3.9 kmh S 3.1 mph5.0 kmh 30.13 in1020.3 mb 0.00 in0.0 mm 0.00 in0.0 mm 0.00 in0.0 mm
02:25 PM 57.9°F14.4°C 51.5°F10.8°C 79% 2.7 mph SSE4.3 kmh SSE 3.8 mph6.1 kmh 30.13 in1020.3 mb 0.00 in0.0 mm 0.00 in0.0 mm 0.00 in0.0 mm
02:30 PM 58.1°F14.5°C 51.6°F10.9°C 79% 3.3 mph SE5.3 kmh SE 3.8 mph6.1 kmh 30.13 in1020.3 mb 0.00 in0.0 mm 0.00 in0.0 mm 0.00 in0.0 mm
02:35 PM 58.1°F14.5°C 51.3°F10.7°C 78% 3.7 mph SE6.0 kmh SE 4.5 mph7.2 kmh 30.13 in1020.3 mb 0.00 in0.0 mm 0.00 in0.0 mm 0.00 in0.0 mm
02:40 PM 58.3°F14.6°C 51.1°F10.6°C 77% 4.3 mph SE6.9 kmh SE 6.0 mph9.7 kmh 30.12 in1020.0 mb 0.00 in0.0 mm 0.00 in0.0 mm 0.00 in0.0 mm
02:45 PM 58.3°F14.6°C 51.1°F10.6°C 77% 5.2 mph SE8.4 kmh SE 6.9 mph11.1 kmh 30.11 in1019.6 mb 0.00 in0.0 mm 0.00 in0.0 mm 0.00 in0.0 mm
02:50 PM 58.3°F14.6°C 50.8°F10.4°C 76% 5.4 mph SE8.7 kmh SE 6.9 mph11.1 kmh 30.11 in1019.6 mb 0.00 in0.0 mm 0.00 in0.0 mm 0.00 in0.0 mm
02:55 PM 58.3°F14.6°C 50.8°F10.4°C 76% 4.8 mph SE7.7 kmh SE 6.0 mph9.7 kmh 30.11 in1019.6 mb 0.00 in0.0 mm 0.00 in0.0 mm 0.00 in0.0 mm
03:00 PM 58.1°F14.5°C 50.6°F10.3°C 76% 4.0 mph SE6.4 kmh SE 5.4 mph8.7 kmh 30.11 in1019.6 mb 0.00 in0.0 mm 0.00 in0.0 mm 0.00 in0.0 mm
03:05 PM 58.3°F14.6°C 50.4°F10.2°C 75% 3.4 mph SE5.5 kmh SE 4.5 mph7.2 kmh 30.11 in1019.6 mb 0.00 in0.0 mm 0.00 in0.0 mm 0.00 in0.0 mm
03:10 PM 58.3°F14.6°C 50.4°F10.2°C 75% 3.5 mph SE5.6 kmh SE 4.5 mph7.2 kmh 30.11 in1019.6 mb 0.00 in0.0 mm 0.00 in0.0 mm 0.00 in0.0 mm
03:15 PM 58.3°F14.6°C 50.4°F10.2°C 75% 3.5 mph SE5.6 kmh SE 4.5 mph7.2 kmh 30.11 in1019.6 mb 0.00 in0.0 mm 0.00 in0.0 mm 0.00 in0.0 mm
03:20 PM 58.1°F14.5°C 49.9°F9.9°C 74% 2.4 mph SE3.9 kmh SE 3.8 mph6.1 kmh 30.11 in1019.6 mb 0.00 in0.0 mm 0.00 in0.0 mm 0.00 in0.0 mm
03:25 PM 57.9°F14.4°C 50.1°F10.1°C 75% 1.4 mph SE2.3 kmh SE 2.2 mph3.5 kmh 30.11 in1019.6 mb 0.00 in0.0 mm 0.00 in0.0 mm 0.00 in0.0 mm
03:30 PM 57.9°F14.4°C 50.8°F10.4°C 77% 0.8 mph SE1.3 kmh SE 2.2 mph3.5 kmh 30.11 in1019.6 mb 0.00 in0.0 mm 0.00 in0.0 mm 0.00 in0.0 mm
03:35 PM 57.7°F14.3°C 50.6°F10.3°C 77% 0.6 mph SSE1.0 kmh SSE 1.6 mph2.6 kmh 30.11 in1019.6 mb 0.00 in0.0 mm 0.00 in0.0 mm 0.00 in0.0 mm
03:40 PM 57.7°F14.3°C 50.6°F10.3°C 77% 0.8 mph S1.3 kmh S 2.2 mph3.5 kmh 30.11 in1019.6 mb 0.00 in0.0 mm 0.00 in0.0 mm 0.00 in0.0 mm
03:45 PM 57.6°F14.2°C 50.8°F10.4°C 78% 1.5 mph SSE2.4 kmh SSE 3.1 mph5.0 kmh 30.11 in1019.6 mb 0.00 in0.0 mm 0.00 in0.0 mm 0.00 in0.0 mm
03:50 PM 57.4°F14.1°C 50.6°F10.3°C 78% 1.6 mph SSE2.6 kmh SSE 3.1 mph5.0 kmh 30.11 in1019.6 mb 0.00 in0.0 mm 0.00 in0.0 mm 0.00 in0.0 mm
03:55 PM 57.2°F14.0°C 50.8°F10.4°C 79% 1.6 mph SSE2.6 kmh SSE 2.2 mph3.5 kmh 30.11 in1019.6 mb 0.00 in0.0 mm 0.00 in0.0 mm 0.00 in0.0 mm
04:00 PM 56.8°F13.8°C 50.4°F10.2°C 79% 1.7 mph S2.7 kmh S 2.2 mph3.5 kmh 30.11 in1019.6 mb 0.00 in0.0 mm 0.00 in0.0 mm 0.00 in0.0 mm
04:05 PM 56.7°F13.7°C 50.9°F10.5°C 81% 1.7 mph S2.7 kmh S 3.1 mph5.0 kmh 30.10 in1019.3 mb 0.00 in0.0 mm 0.00 in0.0 mm 0.00 in0.0 mm
04:10 PM 56.7°F13.7°C 51.2°F10.7°C 82% 1.5 mph S2.4 kmh S 3.1 mph5.0 kmh 30.10 in1019.3 mb 0.00 in0.0 mm 0.00 in0.0 mm 0.00 in0.0 mm
04:15 PM 56.3°F13.5°C 51.2°F10.7°C 83% 0.9 mph S1.4 kmh S 2.2 mph3.5 kmh 30.11 in1019.6 mb 0.00 in0.0 mm 0.00 in0.0 mm 0.00 in0.0 mm
04:20 PM 55.9°F13.3°C 51.5°F10.8°C 85% 1.1 mph S1.8 kmh S 4.5 mph7.2 kmh 30.10 in1019.3 mb 0.00 in0.0 mm 0.00 in0.0 mm 0.00 in0.0 mm
04:25 PM 55.8°F13.2°C 51.3°F10.7°C 85% 2.8 mph SE4.5 kmh SE 4.5 mph7.2 kmh 30.10 in1019.3 mb 0.00 in0.0 mm 0.00 in0.0 mm 0.00 in0.0 mm
04:30 PM 55.4°F13.0°C 51.3°F10.7°C 86% 2.6 mph SSE4.2 kmh SSE 4.5 mph7.2 kmh 30.10 in1019.3 mb 0.00 in0.0 mm 0.00 in0.0 mm 0.00 in0.0 mm
04:35 PM 55.4°F13.0°C 51.3°F10.7°C 86% 1.0 mph WSW1.6 kmh WSW 2.2 mph3.5 kmh 30.10 in1019.3 mb 0.00 in0.0 mm 0.00 in0.0 mm 0.00 in0.0 mm
04:40 PM 55.4°F13.0°C 51.3°F10.7°C 86% 0.9 mph WNW1.4 kmh WNW 1.6 mph2.6 kmh 30.10 in1019.3 mb 0.01 in0.3 mm 0.12 in3.0 mm 0.01 in0.3 mm
04:45 PM 55.4°F13.0°C 51.6°F10.9°C 87% 1.9 mph SE3.1 kmh SE 3.1 mph5.0 kmh 30.10 in1019.3 mb 0.01 in0.3 mm 0.00 in0.0 mm 0.01 in0.3 mm
04:50 PM 55.4°F13.0°C 51.6°F10.9°C 87% 1.7 mph SE2.7 kmh SE 3.1 mph5.0 kmh 30.11 in1019.6 mb 0.01 in0.3 mm 0.00 in0.0 mm 0.01 in0.3 mm
04:55 PM 55.2°F12.9°C 51.4°F10.8°C 87% 1.1 mph SSE1.8 kmh SSE 2.2 mph3.5 kmh 30.10 in1019.3 mb 0.01 in0.3 mm 0.00 in0.0 mm 0.01 in0.3 mm
05:00 PM 55.2°F12.9°C 51.7°F10.9°C 88% 1.8 mph SE2.9 kmh SE 3.1 mph5.0 kmh 30.10 in1019.3 mb 0.01 in0.3 mm 0.00 in0.0 mm 0.01 in0.3 mm
05:05 PM 55.0°F12.8°C 51.2°F10.7°C 87% 3.2 mph SE5.1 kmh SE 4.5 mph7.2 kmh 30.09 in1019.0 mb 0.01 in0.3 mm 0.00 in0.0 mm 0.01 in0.3 mm
05:10 PM 54.9°F12.7°C 51.4°F10.8°C 88% 3.2 mph SE5.1 kmh SE 4.5 mph7.2 kmh 30.10 in1019.3 mb 0.01 in0.3 mm 0.00 in0.0 mm 0.01 in0.3 mm
05:15 PM 54.7°F12.6°C 51.2°F10.7°C 88% 2.7 mph SE4.3 kmh SE 3.8 mph6.1 kmh 30.10 in1019.3 mb 0.01 in0.3 mm 0.00 in0.0 mm 0.01 in0.3 mm
05:20 PM 54.5°F12.5°C 51.0°F10.6°C 88% 3.3 mph SE5.3 kmh SE 4.5 mph7.2 kmh 30.09 in1019.0 mb 0.01 in0.3 mm 0.00 in0.0 mm 0.01 in0.3 mm
05:25 PM 54.5°F12.5°C 51.0°F10.6°C 88% 3.5 mph SE5.6 kmh SE 4.5 mph7.2 kmh 30.10 in1019.3 mb 0.01 in0.3 mm 0.00 in0.0 mm 0.01 in0.3 mm
05:30 PM 54.5°F12.5°C 51.0°F10.6°C 88% 2.7 mph SSE4.3 kmh SSE 4.5 mph7.2 kmh 30.10 in1019.3 mb 0.01 in0.3 mm 0.00 in0.0 mm 0.01 in0.3 mm
05:35 PM 54.3°F12.4°C 50.8°F10.4°C 88% 1.3 mph S2.1 kmh S 4.5 mph7.2 kmh 30.09 in1019.0 mb 0.01 in0.3 mm 0.00 in0.0 mm 0.01 in0.3 mm
05:40 PM 54.1°F12.3°C 51.0°F10.6°C 89% 1.2 mph S1.9 kmh S 2.2 mph3.5 kmh 30.09 in1019.0 mb 0.00 in0.0 mm 0.00 in0.0 mm 0.01 in0.3 mm
05:45 PM 54.1°F12.3°C 51.0°F10.6°C 89% 1.6 mph S2.6 kmh S 2.2 mph3.5 kmh 30.09 in1019.0 mb 0.00 in0.0 mm 0.00 in0.0 mm 0.01 in0.3 mm
05:50 PM 54.1°F12.3°C 51.0°F10.6°C 89% 1.6 mph S2.6 kmh S 3.1 mph5.0 kmh 30.09 in1019.0 mb 0.00 in0.0 mm 0.00 in0.0 mm 0.01 in0.3 mm
05:55 PM 54.1°F12.3°C 51.0°F10.6°C 89% 1.9 mph SE3.1 kmh SE 3.1 mph5.0 kmh 30.09 in1019.0 mb 0.00 in0.0 mm 0.00 in0.0 mm 0.01 in0.3 mm
06:00 PM 54.0°F12.2°C 50.8°F10.4°C 89% 2.3 mph SE3.7 kmh SE 3.1 mph5.0 kmh 30.09 in1019.0 mb 0.00 in0.0 mm 0.00 in0.0 mm 0.01 in0.3 mm
06:05 PM 53.8°F12.1°C 50.9°F10.5°C 90% 2.4 mph SE3.9 kmh SE 3.1 mph5.0 kmh 30.09 in1019.0 mb 0.00 in0.0 mm 0.00 in0.0 mm 0.01 in0.3 mm
06:10 PM 53.8°F12.1°C 50.9°F10.5°C 90% 2.1 mph SSE3.4 kmh SSE 3.1 mph5.0 kmh 30.09 in1019.0 mb 0.00 in0.0 mm 0.00 in0.0 mm 0.01 in0.3 mm
06:15 PM 53.6°F12.0°C 50.7°F10.4°C 90% 1.8 mph S2.9 kmh S 2.2 mph3.5 kmh 30.09 in1019.0 mb 0.00 in0.0 mm 0.00 in0.0 mm 0.01 in0.3 mm
06:20 PM 53.6°F12.0°C 50.7°F10.4°C 90% 1.2 mph SSE1.9 kmh SSE 2.2 mph3.5 kmh 30.09 in1019.0 mb 0.00 in0.0 mm 0.00 in0.0 mm 0.01 in0.3 mm
06:25 PM 53.4°F11.9°C 50.6°F10.3°C 90% 0.9 mph S1.4 kmh S 2.2 mph3.5 kmh 30.08 in1018.6 mb 0.00 in0.0 mm 0.00 in0.0 mm 0.01 in0.3 mm
06:30 PM 53.4°F11.9°C 50.6°F10.3°C 90% 1.3 mph S2.1 kmh S 2.2 mph3.5 kmh 30.08 in1018.6 mb 0.00 in0.0 mm 0.00 in0.0 mm 0.01 in0.3 mm
06:35 PM 53.4°F11.9°C 50.6°F10.3°C 90% 1.7 mph SSE2.7 kmh SSE 2.2 mph3.5 kmh 30.08 in1018.6 mb 0.00 in0.0 mm 0.00 in0.0 mm 0.01 in0.3 mm
06:40 PM 53.2°F11.8°C 50.4°F10.2°C 90% 2.1 mph SE3.4 kmh SE 3.8 mph6.1 kmh 30.08 in1018.6 mb 0.00 in0.0 mm 0.00 in0.0 mm 0.01 in0.3 mm
06:45 PM 53.2°F11.8°C 50.4°F10.2°C 90% 3.0 mph E4.8 kmh E 4.5 mph7.2 kmh 30.09 in1019.0 mb 0.00 in0.0 mm 0.00 in0.0 mm 0.01 in0.3 mm
06:50 PM 53.1°F11.7°C 50.2°F10.1°C 90% 4.1 mph E6.6 kmh E 8.3 mph13.4 kmh 30.09 in1019.0 mb 0.00 in0.0 mm 0.00 in0.0 mm 0.01 in0.3 mm
06:55 PM 53.1°F11.7°C 49.9°F9.9°C 89% 5.4 mph E8.7 kmh E 8.3 mph13.4 kmh 30.09 in1019.0 mb 0.00 in0.0 mm 0.00 in0.0 mm 0.01 in0.3 mm
07:00 PM 53.1°F11.7°C 49.6°F9.8°C 88% 6.4 mph E10.3 kmh E 8.3 mph13.4 kmh 30.08 in1018.6 mb 0.00 in0.0 mm 0.00 in0.0 mm 0.01 in0.3 mm
07:05 PM 53.2°F11.8°C 49.8°F9.9°C 88% 6.0 mph ESE9.7 kmh ESE 7.6 mph12.2 kmh 30.08 in1018.6 mb 0.00 in0.0 mm 0.00 in0.0 mm 0.01 in0.3 mm
07:10 PM 53.2°F11.8°C 49.8°F9.9°C 88% 4.2 mph ESE6.8 kmh ESE 6.9 mph11.1 kmh 30.09 in1019.0 mb 0.00 in0.0 mm 0.00 in0.0 mm 0.01 in0.3 mm
07:15 PM 53.2°F11.8°C 49.8°F9.9°C 88% 2.5 mph E4.0 kmh E 6.0 mph9.7 kmh 30.09 in1019.0 mb 0.01 in0.3 mm 0.12 in3.0 mm 0.02 in0.5 mm
07:20 PM 53.1°F11.7°C 49.9°F9.9°C 89% 2.1 mph NNE3.4 kmh NNE 3.1 mph5.0 kmh 30.09 in1019.0 mb 0.01 in0.3 mm 0.00 in0.0 mm 0.02 in0.5 mm
07:25 PM 53.1°F11.7°C 49.9°F9.9°C 89% 2.3 mph W3.7 kmh W 3.8 mph6.1 kmh 30.11 in1019.6 mb 0.01 in0.3 mm 0.00 in0.0 mm 0.02 in0.5 mm
07:30 PM 52.7°F11.5°C 49.9°F9.9°C 90% 2.7 mph W4.3 kmh W 3.8 mph6.1 kmh 30.11 in1019.6 mb 0.02 in0.5 mm 0.12 in3.0 mm 0.04 in1.0 mm
07:35 PM 52.5°F11.4°C 50.0°F10.0°C 91% 2.4 mph WSW3.9 kmh WSW 3.8 mph6.1 kmh 30.11 in1019.6 mb 0.02 in0.5 mm 0.00 in0.0 mm 0.04 in1.0 mm
07:40 PM 52.3°F11.3°C 50.1°F10.1°C 92% 2.4 mph NE3.9 kmh NE 3.8 mph6.1 kmh 30.11 in1019.6 mb 0.04 in1.0 mm 0.24 in6.1 mm 0.05 in1.3 mm
07:45 PM 52.3°F11.3°C 50.4°F10.2°C 93% 1.9 mph NE3.1 kmh NE 3.8 mph6.1 kmh 30.11 in1019.6 mb 0.04 in1.0 mm 0.00 in0.0 mm 0.05 in1.3 mm
07:50 PM 52.3°F11.3°C 50.4°F10.2°C 93% 0.7 mph NNE1.1 kmh NNE 2.2 mph3.5 kmh 30.11 in1019.6 mb 0.04 in1.0 mm 0.00 in0.0 mm 0.05 in1.3 mm
07:55 PM 52.3°F11.3°C 50.4°F10.2°C 93% 0.7 mph N1.1 kmh N 1.6 mph2.6 kmh 30.11 in1019.6 mb 0.05 in1.3 mm 0.12 in3.0 mm 0.06 in1.5 mm
08:00 PM 52.3°F11.3°C 50.7°F10.4°C 94% 0.9 mph N1.4 kmh N 1.6 mph2.6 kmh 30.11 in1019.6 mb 0.05 in1.3 mm 0.00 in0.0 mm 0.06 in1.5 mm
08:05 PM 52.3°F11.3°C 50.7°F10.4°C 94% 0.5 mph NW0.8 kmh NW 1.6 mph2.6 kmh 30.10 in1019.3 mb 0.05 in1.3 mm 0.00 in0.0 mm 0.06 in1.5 mm
08:10 PM 52.2°F11.2°C 50.5°F10.3°C 94% 1.2 mph ESE1.9 kmh ESE 3.1 mph5.0 kmh 30.10 in1019.3 mb 0.06 in1.5 mm 0.12 in3.0 mm 0.07 in1.8 mm
08:15 PM 52.0°F11.1°C 50.6°F10.3°C 95% 1.6 mph SE2.6 kmh SE 3.1 mph5.0 kmh 30.10 in1019.3 mb 0.05 in1.3 mm 0.00 in0.0 mm 0.07 in1.8 mm
08:20 PM 52.0°F11.1°C 50.6°F10.3°C 95% 2.1 mph ESE3.4 kmh ESE 3.8 mph6.1 kmh 30.09 in1019.0 mb 0.05 in1.3 mm 0.00 in0.0 mm 0.07 in1.8 mm
08:25 PM 52.0°F11.1°C 50.6°F10.3°C 95% 3.7 mph E6.0 kmh E 5.4 mph8.7 kmh 30.09 in1019.0 mb 0.06 in1.5 mm 0.12 in3.0 mm 0.08 in2.0 mm
08:30 PM 51.8°F11.0°C 50.4°F10.2°C 95% 4.3 mph E6.9 kmh E 5.4 mph8.7 kmh 30.09 in1019.0 mb 0.05 in1.3 mm 0.00 in0.0 mm 0.08 in2.0 mm
08:35 PM 51.8°F11.0°C 50.4°F10.2°C 95% 3.8 mph E6.1 kmh E 5.4 mph8.7 kmh 30.09 in1019.0 mb 0.05 in1.3 mm 0.00 in0.0 mm 0.08 in2.0 mm
08:40 PM 51.8°F11.0°C 50.4°F10.2°C 95% 2.3 mph E3.7 kmh E 4.5 mph7.2 kmh 30.08 in1018.6 mb 0.05 in1.3 mm 0.00 in0.0 mm 0.09 in2.3 mm
08:45 PM 51.8°F11.0°C 50.4°F10.2°C 95% 1.4 mph SSE2.3 kmh SSE 3.1 mph5.0 kmh 30.08 in1018.6 mb 0.06 in1.5 mm 0.12 in3.0 mm 0.11 in2.8 mm
08:50 PM 51.6°F10.9°C 50.2°F10.1°C 95% 1.1 mph WSW1.8 kmh WSW 2.2 mph3.5 kmh 30.07 in1018.3 mb 0.05 in1.3 mm 0.00 in0.0 mm 0.11 in2.8 mm
08:55 PM 51.6°F10.9°C 50.5°F10.3°C 96% 1.2 mph W1.9 kmh W 1.6 mph2.6 kmh 30.08 in1018.6 mb 0.05 in1.3 mm 0.00 in0.0 mm 0.11 in2.8 mm
09:00 PM 51.6°F10.9°C 50.5°F10.3°C 96% 1.5 mph W2.4 kmh W 1.6 mph2.6 kmh 30.07 in1018.3 mb 0.06 in1.5 mm 0.01 in0.3 mm 0.12 in3.0 mm
09:05 PM 51.6°F10.9°C 50.5°F10.3°C 96% 1.4 mph WSW2.3 kmh WSW 2.2 mph3.5 kmh 30.08 in1018.6 mb 0.05 in1.3 mm 0.00 in0.0 mm 0.12 in3.0 mm
09:10 PM 51.4°F10.8°C 50.3°F10.2°C 96% 1.3 mph WSW2.1 kmh WSW 2.2 mph3.5 kmh 30.08 in1018.6 mb 0.05 in1.3 mm 0.00 in0.0 mm 0.12 in3.0 mm
09:15 PM 51.4°F10.8°C 50.3°F10.2°C 96% 1.6 mph WNW2.6 kmh WNW 2.2 mph3.5 kmh 30.08 in1018.6 mb 0.05 in1.3 mm 0.00 in0.0 mm 0.12 in3.0 mm
09:20 PM 51.4°F10.8°C 50.6°F10.3°C 97% 1.5 mph W2.4 kmh W 2.2 mph3.5 kmh 30.08 in1018.6 mb 0.05 in1.3 mm 0.00 in0.0 mm 0.12 in3.0 mm
09:25 PM 51.4°F10.8°C 50.6°F10.3°C 97% 1.5 mph SE2.4 kmh SE 2.2 mph3.5 kmh 30.08 in1018.6 mb 0.05 in1.3 mm 0.00 in0.0 mm 0.13 in3.3 mm
09:30 PM 51.4°F10.8°C 50.6°F10.3°C 97% 1.5 mph SE2.4 kmh SE 2.2 mph3.5 kmh 30.08 in1018.6 mb 0.05 in1.3 mm 0.00 in0.0 mm 0.13 in3.3 mm
09:35 PM 51.4°F10.8°C 50.6°F10.3°C 97% 1.1 mph SW1.8 kmh SW 1.6 mph2.6 kmh 30.07 in1018.3 mb 0.06 in1.5 mm 0.12 in3.0 mm 0.14 in3.6 mm
09:40 PM 51.6°F10.9°C 50.8°F10.4°C 97% 1.1 mph SSW1.8 kmh SSW 1.6 mph2.6 kmh 30.07 in1018.3 mb 0.05 in1.3 mm 0.00 in0.0 mm 0.14 in3.6 mm
09:45 PM 51.6°F10.9°C 50.8°F10.4°C 97% 1.4 mph S2.3 kmh S 2.2 mph3.5 kmh 30.07 in1018.3 mb 0.05 in1.3 mm 0.00 in0.0 mm 0.15 in3.8 mm
09:50 PM 51.6°F10.9°C 50.8°F10.4°C 97% 1.6 mph SW2.6 kmh SW 2.2 mph3.5 kmh 30.07 in1018.3 mb 0.06 in1.5 mm 0.12 in3.0 mm 0.17 in4.3 mm
09:55 PM 51.6°F10.9°C 51.1°F10.6°C 98% 1.3 mph WSW2.1 kmh WSW 2.2 mph3.5 kmh 30.07 in1018.3 mb 0.06 in1.5 mm 0.00 in0.0 mm 0.17 in4.3 mm
10:00 PM 51.6°F10.9°C 51.1°F10.6°C 98% 1.9 mph SSE3.1 kmh SSE 3.1 mph5.0 kmh 30.07 in1018.3 mb 0.05 in1.3 mm 0.00 in0.0 mm 0.17 in4.3 mm
10:05 PM 51.6°F10.9°C 51.1°F10.6°C 98% 2.3 mph SE3.7 kmh SE 3.8 mph6.1 kmh 30.07 in1018.3 mb 0.06 in1.5 mm 0.12 in3.0 mm 0.18 in4.6 mm
10:10 PM 51.8°F11.0°C 51.3°F10.7°C 98% 1.9 mph SSE3.1 kmh SSE 3.8 mph6.1 kmh 30.06 in1017.9 mb 0.07 in1.8 mm 0.12 in3.0 mm 0.19 in4.8 mm
10:15 PM 51.8°F11.0°C 51.3°F10.7°C 98% 1.8 mph SSE2.9 kmh SSE 2.2 mph3.5 kmh 30.05 in1017.6 mb 0.08 in2.0 mm 0.12 in3.0 mm 0.20 in5.1 mm
10:20 PM 52.0°F11.1°C 51.4°F10.8°C 98% 1.8 mph SE2.9 kmh SE 2.2 mph3.5 kmh 30.05 in1017.6 mb 0.08 in2.0 mm 0.00 in0.0 mm 0.20 in5.1 mm
10:25 PM 52.2°F11.2°C 51.6°F10.9°C 98% 2.4 mph SE3.9 kmh SE 4.5 mph7.2 kmh 30.05 in1017.6 mb 0.08 in2.0 mm 0.00 in0.0 mm 0.21 in5.3 mm
10:30 PM 52.2°F11.2°C 51.6°F10.9°C 98% 3.0 mph ESE4.8 kmh ESE 4.5 mph7.2 kmh 30.05 in1017.6 mb 0.07 in1.8 mm 0.00 in0.0 mm 0.21 in5.3 mm
10:35 PM 52.3°F11.3°C 51.8°F11.0°C 98% 2.5 mph SE4.0 kmh SE 3.8 mph6.1 kmh 30.04 in1017.3 mb 0.07 in1.8 mm 0.00 in0.0 mm 0.21 in5.3 mm
10:40 PM 52.3°F11.3°C 51.8°F11.0°C 98% 2.8 mph ESE4.5 kmh ESE 3.8 mph6.1 kmh 30.04 in1017.3 mb 0.07 in1.8 mm 0.00 in0.0 mm 0.21 in5.3 mm
10:45 PM 52.5°F11.4°C 52.3°F11.3°C 99% 3.3 mph E5.3 kmh E 5.4 mph8.7 kmh 30.04 in1017.3 mb 0.06 in1.5 mm 0.00 in0.0 mm 0.21 in5.3 mm
10:50 PM 52.5°F11.4°C 52.3°F11.3°C 99% 2.3 mph E3.7 kmh E 5.4 mph8.7 kmh 30.04 in1017.3 mb 0.05 in1.3 mm 0.00 in0.0 mm 0.21 in5.3 mm
10:55 PM 52.5°F11.4°C 52.3°F11.3°C 99% 1.4 mph SSE2.3 kmh SSE 2.2 mph3.5 kmh 30.04 in1017.3 mb 0.06 in1.5 mm 0.12 in3.0 mm 0.22 in5.6 mm
11:00 PM 52.5°F11.4°C 52.3°F11.3°C 99% 1.4 mph S2.3 kmh S 2.2 mph3.5 kmh 30.04 in1017.3 mb 0.06 in1.5 mm 0.00 in0.0 mm 0.22 in5.6 mm
11:05 PM 52.7°F11.5°C 52.4°F11.3°C 99% 2.0 mph S3.2 kmh S 3.8 mph6.1 kmh 30.04 in1017.3 mb 0.05 in1.3 mm 0.00 in0.0 mm 0.24 in6.1 mm
11:10 PM 52.7°F11.5°C 52.4°F11.3°C 99% 2.8 mph S4.5 kmh S 3.8 mph6.1 kmh 30.04 in1017.3 mb 0.05 in1.3 mm 0.00 in0.0 mm 0.24 in6.1 mm
11:15 PM 52.7°F11.5°C 52.4°F11.3°C 99% 2.3 mph S3.7 kmh S 3.8 mph6.1 kmh 30.04 in1017.3 mb 0.04 in1.0 mm 0.00 in0.0 mm 0.24 in6.1 mm
11:20 PM 52.9°F11.6°C 52.6°F11.4°C 99% 1.6 mph SSW2.6 kmh SSW 3.1 mph5.0 kmh 30.04 in1017.3 mb 0.05 in1.3 mm 0.12 in3.0 mm 0.25 in6.4 mm
11:25 PM 53.1°F11.7°C 52.8°F11.6°C 99% 1.7 mph SSW2.7 kmh SSW 3.1 mph5.0 kmh 30.04 in1017.3 mb 0.05 in1.3 mm 0.00 in0.0 mm 0.26 in6.6 mm
11:30 PM 53.1°F11.7°C 52.8°F11.6°C 99% 1.3 mph SE2.1 kmh SE 3.1 mph5.0 kmh 30.04 in1017.3 mb 0.05 in1.3 mm 0.00 in0.0 mm 0.26 in6.6 mm
11:35 PM 53.1°F11.7°C 52.8°F11.6°C 99% 0.9 mph E1.4 kmh E 2.2 mph3.5 kmh 30.04 in1017.3 mb 0.06 in1.5 mm 0.12 in3.0 mm 0.27 in6.9 mm
11:40 PM 53.2°F11.8°C 53.0°F11.7°C 99% 0.8 mph NE1.3 kmh NE 2.2 mph3.5 kmh 30.04 in1017.3 mb 0.07 in1.8 mm 0.12 in3.0 mm 0.28 in7.1 mm
11:45 PM 53.2°F11.8°C 53.0°F11.7°C 99% 1.1 mph SSE1.8 kmh SSE 2.2 mph3.5 kmh 30.04 in1017.3 mb 0.07 in1.8 mm 0.00 in0.0 mm 0.28 in7.1 mm
11:50 PM 53.4°F11.9°C 53.2°F11.8°C 99% 1.3 mph SW2.1 kmh SW 2.2 mph3.5 kmh 30.04 in1017.3 mb 0.08 in2.0 mm 0.12 in3.0 mm 0.30 in7.6 mm
11:55 PM 53.4°F11.9°C 53.2°F11.8°C 99% 2.1 mph W3.4 kmh W 6.0 mph9.7 kmh 30.04 in1017.3 mb 0.07 in1.8 mm 0.00 in0.0 mm 0.30 in7.6 mm